Unicom:                    122.8

AWOS:                  118.275

Elevation           1458’ MSL

TPA:                   2500’ MSL

06/24:         5003’ L   75’ W

PAPI:       06/Left     24/Left

(Operate lights on unicom freq.)

Traffic Pattern: Left

Beacon: Sunset to Sunrise

Windsock: yes, lighted

Segmented Circle: No

 

Cleveland Center: 126.72/291.65

FSS: Altoona

[Source: ADDS]
METAR
KFKL 251956Z AUTO 16006KT 10SM BKN025 OVC048 16/11 A2984 RMK AO2 SLP109 T01610106 =
KFKL 251746Z 2518/2618 12003KT P6SM OVC025 FM260400 14005KT P6SM -SHRA OVC015 WS020/19040KT FM260800 18012KT P6SM SHRA OVC005 WS020/19040KT
TAF
KFKL 251746Z 2518/2618 12003KT P6SM OVC025 FM260400 14005KT P6SM -SHRA OVC015 WS020/19040KT FM260800 18012KT P6SM SHRA OVC005 WS020/19040KT =
[Source: ADDS]
METAR
KDUJ 251953Z AUTO 13005KT 10SM OVC015 14/09 A2985 RMK AO2 SLP112 T01390089 =
KDUJ 251901Z 2519/2618 12005KT P6SM OVC015 TEMPO 2522/2524 -SHRA FM260500 14005KT P6SM -SHRA OVC015 FM261200 15009KT P6SM -SHRA OVC015 WS020/19040KT FM261300 16009KT P6SM SHRA OVC008 WS020/19040KT
TAF
KDUJ 251901Z 2519/2618 12005KT P6SM OVC015 TEMPO 2522/2524 -SHRA FM260500 14005KT P6SM -SHRA OVC015 FM261200 15009KT P6SM -SHRA OVC015 WS020/19040KT FM261300 16009KT P6SM SHRA OVC008 WS020/19040KT =

Nearby Overnight Accommodations.

Park Inn by Radisson

45 Holiday Inn Rd

Clarion, PA 16214

Phone # (814) 226-8850

Park Inn by Radisson

45 Holiday Inn Rd Clarion, PA 16214 Phone # (814) 226-8850

Microtel

121 North Point Drive

Clarion, PA 16214

Phone # (814) 227-2223

Microtel

121 North Point Drive Clarion, PA 16214 Phone # (814) 227-2223

Hampton Inn and Suites

4 Hospital Drive

Clarion, PA 16214

Phone # (814) 226-4444

Hampton Inn & Suites

4 Hospital Drive Clarion, PA 16214 Phone # (814) 226-4444

Comfort Inn

129 Dolby Street

Clarion, PA 16214

Phone # (814) 226-5230

Comfort Inn

129 Dolby Street Clarion, PA 16214 Phone # (814) 226-5230

Quality Inn

24 United Drive

Clarion, PA 16214 

Phone # (814) 226-8682 


Quality Inn

24 United Drive Clarion, PA 16214 Phone # (814) 226-8682

Holiday Inn Express

325 Perkins Road

Clarion, PA 16214

Phone (814) 223-4010


Holiday Inn Express

325 Perkins Road Clarion, PA 16214 Phone (814) 223-4010

Super 8 Motel

135 Hotel Road

Clarion, PA 16214

Phone # (800) 536-9326

Super 8 Motel

135 Hotel Road Clarion, PA 16214 Phone # (800) 536-9326


Transportation.

Enterprise

545 South Fifth Avenue

Clarion, PA 16214

Phone # (814) 227-1284

Enterprise

545 South Fifth Avenue Clarion, PA 16214 Phone # (814) 227-1284

Clarion County Taxi, Inc.

East End Road

Clarion County Taxi, Inc.

Shippenville, PA 16254

Phone # (814) 226-8635

 *cash, check, debit


Choice Cab Co.

Clarion, PA 16214

Phone # (814) 221- 4992

 *cash only